M I D A S
Marine Information and Data Acquisition System
Tripno 2103 of the Zeeleeuw from 2011-05-19 07:49:11 to 2011-05-19 13:01:09
Back to CruiseResearch ActivitiesStationsMapUnderway DataData graphs

EquipmentUnitsComment
TimeDGPSUTC
LatitudeDGPSDM.mWGS84
LongitudeDGPSDM.mWGS84
HeadingGyrodeg 
SOGDGPSknotsSpeed over ground
COGDGPSdegCourse over ground
DepthEcho soundermeters200 kHz
Missing or incorrect values are displayed as -999
Navigation data collected by the RV Zeeleeuw from 2011-05-19 07:50:55 to 2011-05-19 13:13:59
                                                                                    Next 1000 lines
Time Latitude Longitude Heading SOG COG Depth
2011-05-19 07:51:05 51°13.616 2°56.067 111.5 0.8 288 6.8
2011-05-19 07:51:10 51°13.616 2°56.064 111.5 1.3 289 6.9
2011-05-19 07:51:15 51°13.617 2°56.06 111.6 1.8 291 6.7
2011-05-19 07:51:20 51°13.618 2°56.055 111.8 2.2 290 6.6
2011-05-19 07:51:24 51°13.619 2°56.051 112 2.7 292 -999
2011-05-19 07:51:30 51°13.621 2°56.044 112.4 3.1 292 -999
2011-05-19 07:51:35 51°13.623 2°56.037 113.2 3.3 294 -999
2011-05-19 07:51:40 51°13.625 2°56.03 113.6 3.5 293 -999
2011-05-19 07:51:45 51°13.627 2°56.022 113.5 3.7 293 -999
2011-05-19 07:51:50 51°13.629 2°56.015 113.2 3.8 292 -999
2011-05-19 07:51:55 51°13.631 2°56.007 112.7 3.8 293 -999
2011-05-19 07:52:00 51°13.633 2°55.999 112.6 3.8 292 -999
2011-05-19 07:52:05 51°13.635 2°55.992 112.6 3.8 293 -999
2011-05-19 07:52:10 51°13.637 2°55.984 112.6 3.7 292 -999
2011-05-19 07:52:15 51°13.639 2°55.977 112.5 3.6 293 -999
2011-05-19 07:52:20 51°13.641 2°55.969 112.5 3.6 292 -999
2011-05-19 07:52:25 51°13.642 2°55.962 112.5 3.5 292 -999
2011-05-19 07:52:30 51°13.644 2°55.955 112.6 3.5 292 -999
2011-05-19 07:52:35 51°13.646 2°55.948 113.3 3.5 293 -999
2011-05-19 07:52:40 51°13.648 2°55.941 114.2 3.5 293 -999
2011-05-19 07:52:45 51°13.65 2°55.934 114.9 3.5 294 -999
2011-05-19 07:52:50 51°13.652 2°55.927 115.7 3.6 295 -999
2011-05-19 07:52:55 51°13.654 2°55.919 116.5 3.6 295 -999
2011-05-19 07:53:00 51°13.656 2°55.912 117.3 3.7 296 -999
2011-05-19 07:53:05 51°13.659 2°55.905 118 3.7 296 -999
2011-05-19 07:53:10 51°13.661 2°55.898 118.4 3.6 297 -999
2011-05-19 07:53:15 51°13.663 2°55.891 118.4 3.6 297 -999
2011-05-19 07:53:20 51°13.665 2°55.884 118.5 3.5 297 -999
2011-05-19 07:53:25 51°13.667 2°55.877 118.5 3.4 297 -999
2011-05-19 07:53:30 51°13.669 2°55.871 118.5 3.3 296 -999
2011-05-19 07:53:36 51°13.672 2°55.863 118.5 3.2 296 -999
2011-05-19 07:53:40 51°13.673 2°55.858 118.4 3.2 296 -999
2011-05-19 07:53:45 51°13.675 2°55.852 118.3 3.1 296 7.9
2011-05-19 07:53:50 51°13.677 2°55.846 118.3 3 296 7.9
2011-05-19 07:53:55 51°13.679 2°55.84 118.2 3 296 -999
2011-05-19 07:54:00 51°13.681 2°55.834 118.2 3 297 8.1
2011-05-19 07:54:05 51°13.683 2°55.829 118.6 2.9 297 8.6
2011-05-19 07:54:10 51°13.684 2°55.823 119.5 2.9 297 9.2
2011-05-19 07:54:15 51°13.686 2°55.818 120.6 2.9 299 9.3
2011-05-19 07:54:20 51°13.688 2°55.812 121.6 2.9 300 4.8
2011-05-19 07:54:25 51°13.691 2°55.806 123 2.9 300 10.2
2011-05-19 07:54:30 51°13.693 2°55.801 124.7 3 302 -999
2011-05-19 07:54:36 51°13.696 2°55.794 126 3.1 303 -999
2011-05-19 07:54:41 51°13.698 2°55.788 127.6 3.3 305 -999
2011-05-19 07:54:45 51°13.701 2°55.783 129.3 3.4 306 -999
2011-05-19 07:54:50 51°13.704 2°55.777 130.9 3.5 307 -999
2011-05-19 07:54:55 51°13.707 2°55.77 132 3.7 310 -999
2011-05-19 07:55:01 51°13.711 2°55.763 133.6 3.8 311 -999
2011-05-19 07:55:05 51°13.714 2°55.758 134.7 3.9 312 -999
2011-05-19 07:55:10 51°13.718 2°55.751 135.7 4.1 314 -999
2011-05-19 07:55:15 51°13.722 2°55.745 137 4.2 315 -999
2011-05-19 07:55:20 51°13.726 2°55.738 138.1 4.3 316 -999
2011-05-19 07:55:25 51°13.731 2°55.732 139.2 4.4 317 -999
2011-05-19 07:55:30 51°13.735 2°55.725 139.9 4.5 318 -999
2011-05-19 07:55:35 51°13.74 2°55.719 140.9 4.6 319 -999
2011-05-19 07:55:40 51°13.745 2°55.712 141.7 4.7 320 -999
2011-05-19 07:55:45 51°13.75 2°55.705 143.1 4.8 322 -999
2011-05-19 07:55:50 51°13.756 2°55.699 144 4.9 322 -999
2011-05-19 07:55:55 51°13.761 2°55.692 145.2 4.9 324 -999
2011-05-19 07:56:00 51°13.767 2°55.686 146.7 5 325 -999
2011-05-19 07:56:05 51°13.773 2°55.68 148.1 5 326 -999
2011-05-19 07:56:10 51°13.779 2°55.674 149.2 5.1 327 -999
2011-05-19 07:56:15 51°13.785 2°55.668 150.7 5.1 329 -999
2011-05-19 07:56:20 51°13.791 2°55.662 152.7 5.1 330 -999
2011-05-19 07:56:25 51°13.797 2°55.657 154.4 5.1 332 -999
2011-05-19 07:56:30 51°13.803 2°55.651 156.1 5.2 333 -999
2011-05-19 07:56:35 51°13.81 2°55.647 157.6 5.2 335 -999
2011-05-19 07:56:40 51°13.817 2°55.642 160 5.2 337 -999
2011-05-19 07:56:46 51°13.825 2°55.637 162.1 5.2 339 -999
2011-05-19 07:56:49 51°13.829 2°55.635 164.3 5.2 341 -999
2011-05-19 07:56:56 51°13.839 2°55.63 166.5 5.2 344 -999
2011-05-19 07:57:01 51°13.846 2°55.627 168.7 5.3 345 -999
2011-05-19 07:57:06 51°13.853 2°55.625 170.7 5.3 347 -999
2011-05-19 07:57:10 51°13.859 2°55.623 172.8 5.3 349 -999
2011-05-19 07:57:15 51°13.866 2°55.622 174.4 5.3 351 -999
2011-05-19 07:57:21 51°13.874 2°55.62 176.5 5.2 354 -999
2011-05-19 07:57:25 51°13.88 2°55.619 179.1 5 356 -999
2011-05-19 07:57:30 51°13.887 2°55.619 180.8 4.8 358 -999
2011-05-19 07:57:35 51°13.893 2°55.619 182.8 4.7 -999 -999
2011-05-19 07:57:40 51°13.899 2°55.619 185.4 4.6 2 -999
2011-05-19 07:57:45 51°13.906 2°55.62 187 4.5 4 -999
2011-05-19 07:57:50 51°13.912 2°55.621 188.8 4.4 5 9.5
2011-05-19 07:57:55 51°13.918 2°55.622 190.9 4.2 8 -999
2011-05-19 07:58:00 51°13.923 2°55.623 193.1 4 9 -999
2011-05-19 07:58:05 51°13.928 2°55.625 195.2 3.8 12 -999
2011-05-19 07:58:10 51°13.933 2°55.627 197.3 3.6 13 -999
2011-05-19 07:58:15 51°13.938 2°55.629 199.4 3.4 14 -999
2011-05-19 07:58:20 51°13.942 2°55.631 201.1 3.2 17 9.6
2011-05-19 07:58:25 51°13.946 2°55.632 202.5 2.9 18 9.7
2011-05-19 07:58:30 51°13.949 2°55.634 204.2 2.7 19 9.7
2011-05-19 07:58:35 51°13.953 2°55.636 205.9 2.4 21 9.7
2011-05-19 07:58:39 51°13.955 2°55.638 208.1 2.1 22 9.8
2011-05-19 07:58:44 51°13.957 2°55.639 210.2 1.6 23 9.8
2011-05-19 07:58:50 51°13.959 2°55.64 212.6 1.2 21 9.9
2011-05-19 07:58:54 51°13.96 2°55.641 215.9 0.8 18 9.8
2011-05-19 07:58:59 51°13.96 2°55.641 219.4 0.5 359 9.8
2011-05-19 07:59:04 51°13.961 2°55.64 222.7 0.4 300 9.8
2011-05-19 07:59:09 51°13.96 2°55.638 227.1 0.8 260 9.9
2011-05-19 07:59:14 51°13.96 2°55.636 231.9 1.3 254 9.8
2011-05-19 07:59:20 51°13.959 2°55.631 238.3 1.9 256 9.8
2011-05-19 07:59:25 51°13.958 2°55.625 245.8 2.4 261 9.8
2011-05-19 07:59:30 51°13.958 2°55.619 253.7 2.8 268 9.7
2011-05-19 07:59:35 51°13.959 2°55.612 261.6 3.1 274 9.7
2011-05-19 07:59:39 51°13.959 2°55.606 269.6 3.4 281 9.6
2011-05-19 07:59:45 51°13.961 2°55.597 277.4 3.6 288 9.7
2011-05-19 07:59:49 51°13.963 2°55.591 285.1 3.8 295 9.7
2011-05-19 07:59:55 51°13.967 2°55.582 292.5 4 301 9.5
2011-05-19 07:59:59 51°13.97 2°55.577 299.9 4.2 309 9.4
2011-05-19 08:00:04 51°13.974 2°55.57 307.6 4.4 315 9.3
2011-05-19 08:00:09 51°13.979 2°55.563 315 4.6 321 9.4
2011-05-19 08:00:14 51°13.985 2°55.557 320.7 4.8 323 9.3
2011-05-19 08:00:19 51°13.991 2°55.551 324.5 5.1 327 9.4
2011-05-19 08:00:23 51°13.996 2°55.545 327.4 5.4 328 9.4
2011-05-19 08:00:28 51°14.002 2°55.539 329.1 5.5 329 -999
2011-05-19 08:00:33 51°14.009 2°55.533 329.7 5.6 328 9.5
2011-05-19 08:00:38 51°14.016 2°55.526 330.2 5.8 329 9.4
2011-05-19 08:00:43 51°14.023 2°55.52 330.9 5.9 330 9.3
2011-05-19 08:00:48 51°14.03 2°55.513 331.2 6.1 329 9.4
2011-05-19 08:00:53 51°14.037 2°55.506 331.2 6.3 330 9.4
2011-05-19 08:00:59 51°14.047 2°55.497 331.4 6.6 330 9.4
2011-05-19 08:01:04 51°14.055 2°55.49 331.3 6.9 329 -999
2011-05-19 08:01:08 51°14.062 2°55.483 330.7 7.2 329 9.4
2011-05-19 08:01:14 51°14.073 2°55.473 330.3 7.5 330 9.4
2011-05-19 08:01:19 51°14.082 2°55.464 331.1 7.8 331 9.4
2011-05-19 08:01:24 51°14.092 2°55.456 332.1 7.9 330 -999
2011-05-19 08:01:28 51°14.1 2°55.449 332.1 8 331 9.4
2011-05-19 08:01:33 51°14.11 2°55.44 332.5 8.2 331 -999
2011-05-19 08:01:38 51°14.12 2°55.431 332.5 8.4 330 -999
2011-05-19 08:01:44 51°14.132 2°55.419 332.4 8.6 330 9.2
2011-05-19 08:01:48 51°14.141 2°55.412 331.9 8.7 329 9.2
2011-05-19 08:01:53 51°14.151 2°55.402 331.2 8.8 329 9.2
2011-05-19 08:01:58 51°14.162 2°55.392 331.1 9 329 9.2
2011-05-19 08:02:03 51°14.173 2°55.381 330.7 9.1 329 9.2
2011-05-19 08:02:08 51°14.183 2°55.371 330.3 9.1 329 9.2
2011-05-19 08:02:12 51°14.192 2°55.362 330.3 9.2 329 9.3
2011-05-19 08:02:17 51°14.203 2°55.352 330.3 9.3 329 9.2
2011-05-19 08:02:23 51°14.217 2°55.339 330.4 9.4 329 9.3
2011-05-19 08:02:28 51°14.228 2°55.328 330.3 9.5 328 9.2
2011-05-19 08:02:32 51°14.237 2°55.32 330.4 9.6 329 9.2
2011-05-19 08:02:37 51°14.248 2°55.308 330.2 9.7 328 9.2
2011-05-19 08:02:43 51°14.262 2°55.295 330.1 9.9 329 9.2
2011-05-19 08:02:48 51°14.274 2°55.283 330.4 10 328 9.4
2011-05-19 08:02:52 51°14.284 2°55.273 329.9 10.2 328 9.1
2011-05-19 08:02:57 51°14.296 2°55.261 329 10.3 327 9.1
2011-05-19 08:03:02 51°14.308 2°55.249 329.3 10.4 329 9
2011-05-19 08:03:07 51°14.32 2°55.237 329.9 10.5 327 9
2011-05-19 08:03:13 51°14.335 2°55.221 329.2 10.6 327 8.9
2011-05-19 08:03:17 51°14.345 2°55.211 328.9 10.8 327 8.8
2011-05-19 08:03:22 51°14.358 2°55.198 329.2 10.9 328 8.9
2011-05-19 08:03:27 51°14.371 2°55.185 329.3 10.9 327 -999
2011-05-19 08:03:33 51°14.386 2°55.169 328.7 11 326 8.7
2011-05-19 08:03:38 51°14.399 2°55.156 328.7 11.1 327 8.8
2011-05-19 08:03:43 51°14.411 2°55.142 328.3 11.1 325 9.1
2011-05-19 08:03:49 51°14.427 2°55.125 327.4 11.2 326 9
2011-05-19 08:03:53 51°14.437 2°55.114 327 11.2 325 9
2011-05-19 08:03:59 51°14.452 2°55.096 326.2 11.3 324 -999
2011-05-19 08:04:04 51°14.465 2°55.082 325.6 11.4 324 -999
2011-05-19 08:04:09 51°14.478 2°55.067 325.4 11.5 324 9.5
2011-05-19 08:04:14 51°14.491 2°55.052 325.7 11.7 324 9.6
2011-05-19 08:04:20 51°14.506 2°55.032 326 11.8 322 9.6
2011-05-19 08:04:25 51°14.519 2°55.016 324.7 11.9 321 9.9
2011-05-19 08:04:29 51°14.529 2°55.002 323.8 12.1 320 10.2
2011-05-19 08:04:34 51°14.542 2°54.984 323.8 12.3 319 10.8
2011-05-19 08:04:39 51°14.555 2°54.966 324.5 12.5 320 10.6
2011-05-19 08:04:44 51°14.568 2°54.947 325.3 12.7 317 10.6
2011-05-19 08:04:50 51°14.585 2°54.925 325.6 12.7 320 10.7
2011-05-19 08:04:54 51°14.595 2°54.909 327.1 12.9 317 10.5
2011-05-19 08:04:59 51°14.608 2°54.89 326.5 12.9 316 10.4
2011-05-19 08:05:04 51°14.62 2°54.869 324.1 13 313 10.3
2011-05-19 08:05:09 51°14.632 2°54.846 321.5 13.1 310 10.5
2011-05-19 08:05:14 51°14.642 2°54.822 318 13.2 305 10
2011-05-19 08:05:18 51°14.649 2°54.802 313.2 13.3 300 10.3
2011-05-19 08:05:23 51°14.658 2°54.776 309.2 13.4 296 10.1
2011-05-19 08:05:28 51°14.665 2°54.748 303.5 13.5 291 10.1
2011-05-19 08:05:33 51°14.67 2°54.72 299.7 13.5 287 10
2011-05-19 08:05:38 51°14.675 2°54.691 294.3 13.5 284 9.9
2011-05-19 08:05:42 51°14.677 2°54.667 289.5 13.6 280 9.9
2011-05-19 08:05:47 51°14.679 2°54.637 286.1 13.6 275 9.8
2011-05-19 08:05:53 51°14.679 2°54.601 281.5 13.6 270 9.7
2011-05-19 08:05:58 51°14.677 2°54.571 275.9 13.6 264 9
2011-05-19 08:06:02 51°14.674 2°54.548 269.3 13.5 258 8.9
2011-05-19 08:06:07 51°14.668 2°54.519 262.4 13.5 253 8.8
2011-05-19 08:06:12 51°14.661 2°54.491 254.1 13.7 247 8.8
2011-05-19 08:06:17 51°14.653 2°54.464 249.8 13.8 245 8.7
2011-05-19 08:06:22 51°14.644 2°54.436 246.6 13.8 243 8.7
2011-05-19 08:06:26 51°14.636 2°54.415 243.4 13.9 240 8.7
2011-05-19 08:06:31 51°14.626 2°54.389 239.5 13.9 237 8.6
2011-05-19 08:06:36 51°14.615 2°54.364 236.2 14 235 8.6
2011-05-19 08:06:41 51°14.603 2°54.339 234.5 14.1 235 8.7
2011-05-19 08:06:47 51°14.589 2°54.308 233.8 14.1 234 8.6
2011-05-19 08:06:52 51°14.577 2°54.283 232.8 14.1 234 8.6
2011-05-19 08:06:56 51°14.568 2°54.263 232.6 14.2 233 8.4
2011-05-19 08:07:02 51°14.554 2°54.233 232.7 14.2 231 8.5
2011-05-19 08:07:07 51°14.541 2°54.209 231.5 14.3 230 8.5
2011-05-19 08:07:12 51°14.528 2°54.184 230 14.3 231 8.5
2011-05-19 08:07:16 51°14.518 2°54.165 229.4 14.3 229 8.4
2011-05-19 08:07:22 51°14.503 2°54.136 228.1 14.3 230 8.3
2011-05-19 08:07:27 51°14.49 2°54.112 227.7 14.3 229 8.3
2011-05-19 08:07:32 51°14.477 2°54.088 228.5 14.3 230 8.3
2011-05-19 08:07:37 51°14.464 2°54.063 229.5 14.4 231 8.3
2011-05-19 08:07:42 51°14.453 2°54.037 230.9 14.4 233 6.1
2011-05-19 08:07:47 51°14.441 2°54.011 233 14.5 235 8.2
2011-05-19 08:07:51 51°14.432 2°53.99 234.9 14.4 238 8.2
2011-05-19 08:07:57 51°14.42 2°53.957 237.9 14.4 238 8.2
2011-05-19 08:08:02 51°14.41 2°53.93 239.5 14.4 240 8.2
2011-05-19 08:08:07 51°14.4 2°53.902 241.1 14.4 241 8.2
2011-05-19 08:08:11 51°14.393 2°53.88 242.6 14.4 241 8.2
2011-05-19 08:08:17 51°14.382 2°53.846 243.2 14.4 242 8.2
2011-05-19 08:08:22 51°14.373 2°53.817 244.1 14.4 243 8.1
2011-05-19 08:08:27 51°14.363 2°53.789 244.2 14.4 243 8.1
2011-05-19 08:08:31 51°14.356 2°53.766 244.7 14.4 243 8.2
2011-05-19 08:08:37 51°14.345 2°53.732 245.1 14.5 243 8.2
2011-05-19 08:08:42 51°14.336 2°53.703 245.1 14.5 243 8.1
2011-05-19 08:08:47 51°14.327 2°53.675 244.7 14.5 243 8.1
2011-05-19 08:08:52 51°14.317 2°53.647 244.4 14.5 242 8.2
2011-05-19 08:08:56 51°14.31 2°53.624 243.8 14.5 242 8.2
2011-05-19 08:09:02 51°14.298 2°53.591 243.2 14.5 240 8.2
2011-05-19 08:09:07 51°14.287 2°53.564 241.3 14.5 238 8.3
2011-05-19 08:09:12 51°14.276 2°53.537 238.9 14.5 236 8.3
2011-05-19 08:09:16 51°14.266 2°53.516 236.7 14.5 235 8.3
2011-05-19 08:09:21 51°14.254 2°53.492 234.2 14.5 231 8.3
2011-05-19 08:09:27 51°14.238 2°53.463 230.8 14.5 228 8.4
2011-05-19 08:09:32 51°14.224 2°53.439 228.5 14.5 228 8.4
2011-05-19 08:09:36 51°14.213 2°53.421 227.2 14.6 227 8.3
2011-05-19 08:09:41 51°14.199 2°53.397 226.5 14.6 226 8.4
2011-05-19 08:09:47 51°14.182 2°53.369 225.7 14.6 226 8.3
2011-05-19 08:09:52 51°14.168 2°53.346 225 14.6 226 8.4
2011-05-19 08:09:56 51°14.157 2°53.327 224.9 14.7 226 8.4
2011-05-19 08:10:01 51°14.143 2°53.304 225 14.7 226 8.5
2011-05-19 08:10:07 51°14.126 2°53.275 225.4 14.7 227 8.4
2011-05-19 08:10:12 51°14.113 2°53.252 226.1 14.7 228 8.4
2011-05-19 08:10:16 51°14.102 2°53.232 226.7 14.7 227 8.5
2011-05-19 08:10:21 51°14.088 2°53.208 226.8 14.7 229 8.4
2011-05-19 08:10:26 51°14.075 2°53.183 227.9 14.8 230 8.5
2011-05-19 08:10:32 51°14.06 2°53.153 229.6 14.7 232 8.5
2011-05-19 08:10:36 51°14.05 2°53.132 231.9 14.7 232 8.5
2011-05-19 08:10:41 51°14.037 2°53.106 232.7 14.7 234 8.4
2011-05-19 08:10:46 51°14.026 2°53.08 234.1 14.7 234 8.5
2011-05-19 08:10:52 51°14.012 2°53.048 234.7 14.7 235 8.5
2011-05-19 08:10:56 51°14.002 2°53.027 235.4 14.7 234 8.6
2011-05-19 08:11:01 51°13.99 2°53.001 235.5 14.7 234 8.6
2011-05-19 08:11:07 51°13.976 2°52.97 235.2 14.7 233 8.6
2011-05-19 08:11:12 51°13.964 2°52.944 234.6 14.7 234 8.6
2011-05-19 08:11:17 51°13.951 2°52.918 234 14.7 232 8.6
2011-05-19 08:11:22 51°13.939 2°52.892 233.5 14.7 233 8.6
2011-05-19 08:11:27 51°13.926 2°52.866 233.2 14.7 233 8.6
2011-05-19 08:11:32 51°13.914 2°52.84 233.3 14.7 233 8.6
2011-05-19 08:11:37 51°13.902 2°52.814 233.7 14.7 234 8.6
2011-05-19 08:11:41 51°13.893 2°52.793 234.6 14.8 235 8.7
2011-05-19 08:11:47 51°13.879 2°52.76 236 14.7 236 8.6
2011-05-19 08:11:52 51°13.868 2°52.733 236.6 14.7 236 8.7
2011-05-19 08:11:57 51°13.857 2°52.706 237.5 14.7 237 8.7
2011-05-19 08:12:01 51°13.848 2°52.685 237.8 14.7 236 8.7
2011-05-19 08:12:07 51°13.834 2°52.652 237.7 14.7 237 8.7
2011-05-19 08:12:12 51°13.823 2°52.625 237.7 14.7 236 8.7
2011-05-19 08:12:17 51°13.812 2°52.598 237.4 14.7 236 8.7
2011-05-19 08:12:21 51°13.803 2°52.576 237.3 14.8 236 8.8
2011-05-19 08:12:25 51°13.794 2°52.555 237.2 14.7 236 8.8
2011-05-19 08:12:32 51°13.778 2°52.517 236.9 14.7 236 8.8
2011-05-19 08:12:37 51°13.766 2°52.49 237 14.7 236 8.8
2011-05-19 08:12:41 51°13.757 2°52.468 237.4 14.7 237 8.8
2011-05-19 08:12:46 51°13.746 2°52.441 237.4 14.8 236 8.8
2011-05-19 08:12:52 51°13.732 2°52.409 237.3 14.8 237 8.8
2011-05-19 08:12:57 51°13.721 2°52.382 237.7 14.7 237 8.8
2011-05-19 08:13:01 51°13.712 2°52.36 237.9 14.8 237 8.8
2011-05-19 08:13:07 51°13.698 2°52.327 237.9 14.8 237 8.9
2011-05-19 08:13:12 51°13.687 2°52.3 238.2 14.7 237 8.9
2011-05-19 08:13:17 51°13.676 2°52.272 238.2 14.7 237 8.9
2011-05-19 08:13:21 51°13.667 2°52.251 238.1 14.7 237 8.9
2011-05-19 08:13:27 51°13.654 2°52.218 237.7 14.7 236 8.9
2011-05-19 08:13:32 51°13.642 2°52.191 237.2 14.7 235 8.9
2011-05-19 08:13:37 51°13.63 2°52.165 235.6 14.7 233 9
2011-05-19 08:13:41 51°13.62 2°52.145 234 14.7 233 8.9
2011-05-19 08:13:46 51°13.608 2°52.119 233.1 14.7 233 9
2011-05-19 08:13:52 51°13.593 2°52.088 232.6 14.7 232 9
2011-05-19 08:13:57 51°13.58 2°52.062 232 14.7 232 9
2011-05-19 08:14:01 51°13.57 2°52.042 231.7 14.7 232 8.9
2011-05-19 08:14:06 51°13.557 2°52.016 231.8 14.7 232 9
2011-05-19 08:14:12 51°13.543 2°51.985 232.3 14.7 233 9
2011-05-19 08:14:17 51°13.53 2°51.959 232.9 14.7 233 9.1
2011-05-19 08:14:21 51°13.521 2°51.938 233.4 14.7 234 9
2011-05-19 08:14:27 51°13.507 2°51.907 234.3 14.7 235 9.1
2011-05-19 08:14:32 51°13.495 2°51.88 235.2 14.7 236 9
2011-05-19 08:14:37 51°13.484 2°51.853 236.1 14.7 236 9.1
2011-05-19 08:14:41 51°13.475 2°51.831 236.9 14.7 237 9.1
2011-05-19 08:14:47 51°13.462 2°51.798 238.2 14.6 238 9.1
2011-05-19 08:14:51 51°13.454 2°51.776 239.3 14.7 239 9.2
2011-05-19 08:14:57 51°13.442 2°51.742 240.6 14.6 240 9.1
2011-05-19 08:15:01 51°13.434 2°51.719 241.6 14.7 241 9.2
2011-05-19 08:15:07 51°13.422 2°51.686 242.2 14.6 241 9.2
2011-05-19 08:15:12 51°13.413 2°51.657 242.8 14.6 241 9.2
2011-05-19 08:15:17 51°13.403 2°51.629 242.8 14.7 241 9.2
2011-05-19 08:15:22 51°13.393 2°51.601 242.6 14.7 241 9.2
2011-05-19 08:15:26 51°13.385 2°51.578 242.2 14.7 240 9.2
2011-05-19 08:15:32 51°13.372 2°51.545 241.6 14.7 239 9.2
2011-05-19 08:15:37 51°13.361 2°51.518 240 14.6 238 9.2
2011-05-19 08:15:42 51°13.35 2°51.491 237.8 14.6 236 9.2
2011-05-19 08:15:46 51°13.341 2°51.469 236.7 14.7 236 9.3
2011-05-19 08:15:51 51°13.329 2°51.443 236 14.7 235 9.3
2011-05-19 08:15:56 51°13.317 2°51.416 235.3 14.7 234 9.2
2011-05-19 08:16:02 51°13.303 2°51.385 234.4 14.7 234 9.3
2011-05-19 08:16:06 51°13.293 2°51.364 234.1 14.7 234 9.3
2011-05-19 08:16:11 51°13.281 2°51.338 234 14.7 234 9.3
2011-05-19 08:16:16 51°13.269 2°51.311 234.4 14.7 235 9.3
2011-05-19 08:16:21 51°13.258 2°51.285 234.8 14.7 235 9.3
2011-05-19 08:16:26 51°13.246 2°51.258 235.2 14.7 235 9.4
2011-05-19 08:16:31 51°13.235 2°51.231 235.8 14.8 236 9.4
2011-05-19 08:16:37 51°13.221 2°51.198 236 14.8 237 9.3
2011-05-19 08:16:42 51°13.21 2°51.171 237.1 14.8 238 9.4
2011-05-19 08:16:46 51°13.202 2°51.148 238.7 14.8 239 9.4
2011-05-19 08:16:50 51°13.194 2°51.125 240.5 14.8 241 9.4
2011-05-19 08:16:56 51°13.182 2°51.091 241.4 14.8 240 9.4
2011-05-19 08:17:01 51°13.172 2°51.062 242.4 14.8 243 9.4
2011-05-19 08:17:06 51°13.162 2°51.034 243 14.8 241 9.4
2011-05-19 08:17:11 51°13.152 2°51.005 242.8 14.9 243 9.3
2011-05-19 08:17:16 51°13.143 2°50.976 243.3 14.9 242 9.4
2011-05-19 08:17:22 51°13.131 2°50.941 243.6 14.9 243 9.5
2011-05-19 08:17:27 51°13.122 2°50.912 243.8 14.9 243 9.5
2011-05-19 08:17:32 51°13.112 2°50.883 244 14.9 242 9.5
2011-05-19 08:17:37 51°13.103 2°50.853 243.7 14.9 242 9.5
2011-05-19 08:17:42 51°13.093 2°50.825 243.2 14.9 241 9.5
2011-05-19 08:17:47 51°13.082 2°50.797 241.6 14.9 239 9.5
2011-05-19 08:17:51 51°13.073 2°50.774 239.7 14.9 237 9.5
2011-05-19 08:17:55 51°13.064 2°50.752 238.1 14.9 237 9.5
2011-05-19 08:18:02 51°13.048 2°50.714 237 14.9 236 9.6
2011-05-19 08:18:07 51°13.036 2°50.687 236 14.9 235 9.5
2011-05-19 08:18:11 51°13.027 2°50.666 235.3 14.9 235 9.5
2011-05-19 08:18:16 51°13.015 2°50.639 234.7 14.9 235 9.6
2011-05-19 08:18:22 51°13.001 2°50.606 235.8 14.9 237 9.5
2011-05-19 08:18:27 51°12.99 2°50.577 237.6 14.9 238 9.5
2011-05-19 08:18:31 51°12.982 2°50.555 238.6 15 239 9.6
2011-05-19 08:18:36 51°12.972 2°50.526 240.3 15 241 9.6
2011-05-19 08:18:41 51°12.962 2°50.497 242.3 14.9 242 9.7
2011-05-19 08:18:47 51°12.951 2°50.462 243.8 14.9 244 9.6
2011-05-19 08:18:51 51°12.944 2°50.438 245.4 14.9 244 9.5
2011-05-19 08:18:55 51°12.937 2°50.414 246.6 14.9 245 9.7
2011-05-19 08:19:01 51°12.927 2°50.378 247.5 14.9 246 9.7
2011-05-19 08:19:06 51°12.918 2°50.348 247.6 14.9 246 9.7
2011-05-19 08:19:11 51°12.91 2°50.318 248.2 14.9 246 9.8
2011-05-19 08:19:16 51°12.902 2°50.288 248.5 14.8 246 9.7
2011-05-19 08:19:21 51°12.893 2°50.258 248.5 14.9 246 9.7
2011-05-19 08:19:26 51°12.885 2°50.228 248.5 14.8 246 9.7
2011-05-19 08:19:32 51°12.875 2°50.192 248.3 14.8 246 9.8
2011-05-19 08:19:35 51°12.87 2°50.175 247.6 14.8 244 9.8
2011-05-19 08:19:41 51°12.859 2°50.139 246.1 14.8 243 9.8
2011-05-19 08:19:47 51°12.847 2°50.105 244.6 14.8 242 9.8
2011-05-19 08:19:52 51°12.837 2°50.076 243.1 14.8 241 9.8
2011-05-19 08:19:56 51°12.829 2°50.053 241.8 14.9 240 9.8
2011-05-19 08:20:01 51°12.819 2°50.025 241.7 14.9 240 9.9
2011-05-19 08:20:07 51°12.806 2°49.991 241.2 14.9 240 10
2011-05-19 08:20:12 51°12.796 2°49.962 240.8 14.9 240 9.9
2011-05-19 08:20:16 51°12.787 2°49.94 240.6 14.9 239 9.9
2011-05-19 08:20:21 51°12.777 2°49.911 240.6 15 240 10
2011-05-19 08:20:27 51°12.765 2°49.876 241.1 15 241 9.9
2011-05-19 08:20:32 51°12.755 2°49.848 241.3 15 241 9.9
2011-05-19 08:20:36 51°12.747 2°49.824 242.5 15 243 10
2011-05-19 08:20:42 51°12.736 2°49.788 244.7 15 244 10
2011-05-19 08:20:47 51°12.728 2°49.758 246.1 15 246 10
2011-05-19 08:20:52 51°12.72 2°49.727 247 15 246 10.1
2011-05-19 08:20:56 51°12.713 2°49.703 248 15 247 9.9
2011-05-19 08:21:01 51°12.705 2°49.672 248.4 15.1 246 10.1
2011-05-19 08:21:07 51°12.695 2°49.635 248.2 15.1 247 10.2
2011-05-19 08:21:12 51°12.686 2°49.605 247.9 15.1 246 10
2011-05-19 08:21:16 51°12.68 2°49.58 248 15.1 247 10.1
2011-05-19 08:21:21 51°12.672 2°49.55 248.3 15.1 247 10.1
2011-05-19 08:21:27 51°12.662 2°49.513 248.4 15.1 247 10.2
2011-05-19 08:21:32 51°12.654 2°49.482 248.4 15.1 247 10.2
2011-05-19 08:21:36 51°12.647 2°49.458 247.9 15.1 245 10.2
2011-05-19 08:21:41 51°12.638 2°49.428 246.8 15.1 245 10.2
2011-05-19 08:21:47 51°12.627 2°49.392 245.6 15.1 243 10.2
2011-05-19 08:21:52 51°12.617 2°49.362 243.6 15.1 241 10.4
2011-05-19 08:21:56 51°12.609 2°49.339 242.3 15 241 10.3
2011-05-19 08:22:01 51°12.598 2°49.311 241 15.1 241 10.4
2011-05-19 08:22:06 51°12.588 2°49.281 241 15 240 10.4
2011-05-19 08:22:11 51°12.577 2°49.253 240.4 15 240 10.4
2011-05-19 08:22:16 51°12.567 2°49.224 240.3 15 240 10.4
2011-05-19 08:22:21 51°12.557 2°49.195 240.8 15.1 240 10.4
2011-05-19 08:22:27 51°12.545 2°49.16 240.8 15 242 10.5
2011-05-19 08:22:32 51°12.534 2°49.132 241.6 15 240 10.4
2011-05-19 08:22:37 51°12.525 2°49.102 241.6 15.1 242 10.4
2011-05-19 08:22:41 51°12.517 2°49.079 242.4 15 242 10.5
2011-05-19 08:22:47 51°12.505 2°49.044 242.8 15 243 10.4
2011-05-19 08:22:52 51°12.496 2°49.014 243.7 15 243 10.5
2011-05-19 08:22:57 51°12.487 2°48.984 245 15 245 10.5
2011-05-19 08:23:01 51°12.48 2°48.96 246.4 15 245 10.5
2011-05-19 08:23:07 51°12.47 2°48.924 247.1 14.9 246 10.5
2011-05-19 08:23:12 51°12.462 2°48.894 247.8 14.9 246 10.5
2011-05-19 08:23:17 51°12.453 2°48.864 248.3 15 247 10.6
2011-05-19 08:23:21 51°12.447 2°48.839 248.7 14.9 247 10.5
2011-05-19 08:23:27 51°12.437 2°48.803 249 14.9 247 10.7
2011-05-19 08:23:32 51°12.429 2°48.773 249 14.9 247 10.6
2011-05-19 08:23:37 51°12.42 2°48.743 248.9 14.9 246 10.6
2011-05-19 08:23:41 51°12.414 2°48.719 248 14.9 245 10.7
2011-05-19 08:23:46 51°12.405 2°48.689 247 14.9 244 10.6
2011-05-19 08:23:52 51°12.393 2°48.654 245.7 14.9 243 10.6
2011-05-19 08:23:57 51°12.383 2°48.625 244.4 14.9 242 10.7
2011-05-19 08:24:01 51°12.376 2°48.602 243.2 14.9 242 10.6
2011-05-19 08:24:07 51°12.364 2°48.568 242.6 14.9 241 10.6
2011-05-19 08:24:12 51°12.354 2°48.539 242.4 14.9 242 10.6
2011-05-19 08:24:17 51°12.344 2°48.51 242.7 14.9 242 10.8
2011-05-19 08:24:21 51°12.337 2°48.486 243.2 14.9 242 10.6
2011-05-19 08:24:27 51°12.326 2°48.451 244 14.9 244 10.8
2011-05-19 08:24:32 51°12.317 2°48.422 245 14.9 244 10.8
2011-05-19 08:24:37 51°12.308 2°48.392 245.8 14.9 245 10.8
2011-05-19 08:24:42 51°12.299 2°48.362 246.5 14.9 245 10.8
2011-05-19 08:24:46 51°12.292 2°48.338 247.1 14.9 246 10.9
2011-05-19 08:24:51 51°12.284 2°48.308 248.1 14.8 247 10.8
2011-05-19 08:24:57 51°12.275 2°48.272 248.9 14.9 247 10.9
2011-05-19 08:25:02 51°12.267 2°48.241 249.9 14.8 248 10.9
2011-05-19 08:25:06 51°12.261 2°48.217 250.3 14.9 248 11.1
2011-05-19 08:25:11 51°12.254 2°48.186 250.5 14.8 249 11.1
2011-05-19 08:25:16 51°12.246 2°48.156 250.9 14.8 248 11
2011-05-19 08:25:22 51°12.237 2°48.119 250.5 14.9 249 10.9
2011-05-19 08:25:26 51°12.231 2°48.095 250.5 14.8 248 10.9
2011-05-19 08:25:31 51°12.223 2°48.065 250.5 14.8 248 11.1
2011-05-19 08:25:36 51°12.215 2°48.034 250.4 14.8 248 11.1
2011-05-19 08:25:42 51°12.206 2°47.998 250.3 14.8 248 11.1
2011-05-19 08:25:46 51°12.2 2°47.974 249.9 14.8 247 11.2
2011-05-19 08:25:51 51°12.192 2°47.944 249.5 14.8 247 11.2
2011-05-19 08:25:57 51°12.182 2°47.907 249 14.8 246 11.3
2011-05-19 08:26:02 51°12.174 2°47.878 248.4 14.8 246 11.2
2011-05-19 08:26:06 51°12.167 2°47.854 247.3 14.8 245 11.3
2011-05-19 08:26:11 51°12.158 2°47.824 246.6 14.9 245 11.2
2011-05-19 08:26:16 51°12.149 2°47.795 246.3 14.9 244 11.3
2011-05-19 08:26:22 51°12.138 2°47.759 246.1 14.9 245 11.2
2011-05-19 08:26:26 51°12.131 2°47.735 245.9 14.9 244 11.3
2011-05-19 08:26:31 51°12.123 2°47.705 246.5 14.9 246 11.2
2011-05-19 08:26:37 51°12.113 2°47.669 247.5 14.9 247 11.3
2011-05-19 08:26:42 51°12.105 2°47.639 248.6 14.9 247 11.3
2011-05-19 08:26:46 51°12.099 2°47.614 249.8 14.9 249 11.3
2011-05-19 08:26:51 51°12.092 2°47.583 250.8 14.9 249 11.4
2011-05-19 08:26:56 51°12.085 2°47.552 251.9 14.9 251 11.4
2011-05-19 08:27:02 51°12.077 2°47.514 253 14.9 251 11.3
2011-05-19 08:27:06 51°12.072 2°47.489 254.2 14.9 252 11.4
2011-05-19 08:27:11 51°12.066 2°47.458 255.1 14.9 253 11.4
2011-05-19 08:27:16 51°12.06 2°47.426 256.1 14.9 254 11.4
2011-05-19 08:27:22 51°12.053 2°47.388 256.6 14.9 254 11.4
2011-05-19 08:27:26 51°12.049 2°47.363 257 14.9 255 11.5
2011-05-19 08:27:31 51°12.043 2°47.331 257.7 15 254 11.4
2011-05-19 08:27:36 51°12.037 2°47.299 257.5 15 255 11.4
2011-05-19 08:27:41 51°12.032 2°47.267 257.5 15 254 11.5
2011-05-19 08:27:46 51°12.026 2°47.235 257.5 15 255 11.4
2011-05-19 08:27:51 51°12.021 2°47.203 257.5 15.1 255 11.5
2011-05-19 08:27:56 51°12.016 2°47.171 258.1 15 256 11.5
2011-05-19 08:28:02 51°12.009 2°47.133 258.7 15 256 11.5
2011-05-19 08:28:06 51°12.005 2°47.107 259.1 15.1 256 11.5
2011-05-19 08:28:11 51°12 2°47.074 259.1 15.1 256 11.5
2011-05-19 08:28:17 51°11.994 2°47.036 259.1 15.1 256 11.5
2011-05-19 08:28:22 51°11.988 2°47.004 258.7 15.1 254 11.5
2011-05-19 08:28:26 51°11.983 2°46.978 257.6 15.1 253 11.6
2011-05-19 08:28:31 51°11.977 2°46.946 256.3 15.1 252 11.5
2011-05-19 08:28:37 51°11.969 2°46.908 254.8 15.1 251 11.6
2011-05-19 08:28:42 51°11.963 2°46.877 253.9 15.1 252 11.5
2011-05-19 08:28:46 51°11.957 2°46.851 253.7 15.1 251 11.6
2011-05-19 08:28:51 51°11.951 2°46.82 254.5 15.1 253 11.6
2011-05-19 08:28:56 51°11.945 2°46.788 255.6 15.1 254 11.6
2011-05-19 08:29:02 51°11.939 2°46.749 256.9 15.1 255 11.6
2011-05-19 08:29:06 51°11.935 2°46.723 257.7 15.1 256 11.6
2011-05-19 08:29:11 51°11.93 2°46.69 258.5 15.1 256 11.5
2011-05-19 08:29:17 51°11.924 2°46.652 259.3 15.1 257 11.6
2011-05-19 08:29:22 51°11.92 2°46.619 260.3 15.1 258 11.6
2011-05-19 08:29:26 51°11.916 2°46.593 261.2 15.1 258 11.7
2011-05-19 08:29:31 51°11.912 2°46.561 261.5 15 259 11.6
2011-05-19 08:29:36 51°11.908 2°46.528 262.1 15 258 11.6
2011-05-19 08:29:42 51°11.903 2°46.489 262.1 15 259 11.6
2011-05-19 08:29:46 51°11.9 2°46.464 262 15 258 11.7
2011-05-19 08:29:51 51°11.896 2°46.431 261.6 15 258 11.6
2011-05-19 08:29:56 51°11.892 2°46.399 261.4 15 258 11.7
2011-05-19 08:30:02 51°11.886 2°46.36 261.2 15 257 11.6
2011-05-19 08:30:06 51°11.883 2°46.334 260.7 15 257 11.7
2011-05-19 08:30:11 51°11.877 2°46.302 260.3 15 256 11.7
2011-05-19 08:30:17 51°11.871 2°46.264 259 15 255 11.7
2011-05-19 08:30:22 51°11.866 2°46.232 258 15 254 11.7
2011-05-19 08:30:26 51°11.861 2°46.206 257.1 15 253 11.7
2011-05-19 08:30:32 51°11.854 2°46.168 256.3 15 254 11.7
2011-05-19 08:30:36 51°11.849 2°46.143 256.4 15 254 11.7
2011-05-19 08:30:42 51°11.842 2°46.105 257.1 15 254 11.7
2011-05-19 08:30:47 51°11.837 2°46.073 257.6 15 255 11.7
2011-05-19 08:30:52 51°11.832 2°46.041 258.5 15 256 11.7
2011-05-19 08:30:57 51°11.828 2°46.008 259.9 15 257 11.7
2011-05-19 08:31:02 51°11.824 2°45.976 261.7 14.9 259 11.8
2011-05-19 08:31:07 51°11.82 2°45.944 262.6 14.9 259 11.7
2011-05-19 08:31:11 51°11.818 2°45.918 263.1 14.9 260 11.8
2011-05-19 08:31:17 51°11.814 2°45.879 264 14.8 260 11.8
2011-05-19 08:31:22 51°11.81 2°45.847 264.1 14.8 261 11.7
2011-05-19 08:31:27 51°11.807 2°45.815 264.3 14.7 261 11.8
2011-05-19 08:31:31 51°11.805 2°45.789 264.3 14.7 261 11.7
2011-05-19 08:31:37 51°11.801 2°45.751 264.3 14.7 261 11.7
2011-05-19 08:31:42 51°11.797 2°45.719 264.2 14.7 261 11.7
2011-05-19 08:31:46 51°11.795 2°45.693 264.2 14.7 260 11.8
2011-05-19 08:31:51 51°11.791 2°45.662 263.6 14.6 260 11.8
2011-05-19 08:31:56 51°11.788 2°45.63 263.3 14.6 260 11.7
2011-05-19 08:32:01 51°11.784 2°45.598 262.7 14.7 259 11.8
2011-05-19 08:32:07 51°11.779 2°45.56 261.7 14.6 258 11.8
2011-05-19 08:32:11 51°11.775 2°45.535 260.7 14.6 257 11.8
2011-05-19 08:32:17 51°11.769 2°45.497 259.5 14.7 257 11.8
2011-05-19 08:32:22 51°11.765 2°45.466 258.8 14.6 256 11.7
2011-05-19 08:32:27 51°11.759 2°45.435 258 14.6 255 11.8
2011-05-19 08:32:32 51°11.754 2°45.403 257.7 14.7 256 11.8
2011-05-19 08:32:36 51°11.75 2°45.378 257.3 14.7 255 11.8
2011-05-19 08:32:42 51°11.744 2°45.34 257.7 14.7 256 11.9
2011-05-19 08:32:47 51°11.74 2°45.309 259 14.7 257 11.8
2011-05-19 08:32:52 51°11.735 2°45.277 259.9 14.7 258 11.8
2011-05-19 08:32:57 51°11.732 2°45.245 260.7 14.7 259 11.8
2011-05-19 08:33:02 51°11.728 2°45.213 262 14.7 260 11.9
2011-05-19 08:33:07 51°11.725 2°45.181 263.2 14.6 261 11.9
2011-05-19 08:33:12 51°11.722 2°45.149 264.6 14.6 262 11.8
2011-05-19 08:33:16 51°11.72 2°45.124 265.4 14.4 262 11.8
2011-05-19 08:33:22 51°11.717 2°45.086 265.8 14.3 263 11.8
2011-05-19 08:33:26 51°11.715 2°45.061 266.6 14.3 263 11.9
2011-05-19 08:33:32 51°11.712 2°45.024 267.1 14.3 264 11.8
2011-05-19 08:33:37 51°11.71 2°44.993 267.4 14.2 264 11.8
2011-05-19 08:33:42 51°11.708 2°44.961 267.6 14.2 264 11.8
2011-05-19 08:33:47 51°11.706 2°44.93 267.6 14.1 263 11.7
2011-05-19 08:33:52 51°11.703 2°44.9 267.2 14.1 263 11.8
2011-05-19 08:33:56 51°11.701 2°44.875 266.6 14.1 262 11.7
2011-05-19 08:34:02 51°11.698 2°44.838 265.7 14.1 262 11.7
2011-05-19 08:34:07 51°11.695 2°44.807 265.3 14 261 11.7
2011-05-19 08:34:12 51°11.692 2°44.777 264.4 14 260 11.7
2011-05-19 08:34:16 51°11.689 2°44.752 263.5 14 259 11.7
2011-05-19 08:34:22 51°11.685 2°44.716 262.7 14 259 11.6
2011-05-19 08:34:26 51°11.682 2°44.692 261.9 14 259 11.7
2011-05-19 08:34:32 51°11.677 2°44.655 261.7 14 258 11.7
2011-05-19 08:34:36 51°11.673 2°44.631 261.2 14 258 11.7
2011-05-19 08:34:41 51°11.669 2°44.601 260.9 14 258 11.6
2011-05-19 08:34:46 51°11.666 2°44.571 261 13.9 258 11.6
2011-05-19 08:34:52 51°11.661 2°44.535 261.4 13.9 259 11.6
2011-05-19 08:34:56 51°11.658 2°44.511 262 14 260 11.6
2011-05-19 08:35:01 51°11.655 2°44.48 262.7 13.9 260 11.5
2011-05-19 08:35:06 51°11.652 2°44.45 263.3 13.9 261 11.6
2011-05-19 08:35:12 51°11.648 2°44.413 264.2 14 262 11.6
2011-05-19 08:35:16 51°11.646 2°44.389 265 13.9 262 11.5
2011-05-19 08:35:21 51°11.644 2°44.359 265.9 13.9 263 11.4
2011-05-19 08:35:26 51°11.642 2°44.328 266.5 13.9 263 11.5
2011-05-19 08:35:32 51°11.639 2°44.292 267 13.9 264 11.4
2011-05-19 08:35:37 51°11.637 2°44.261 267.2 13.9 264 11.5
2011-05-19 08:35:41 51°11.636 2°44.237 267.5 13.9 264 11.4
2011-05-19 08:35:47 51°11.633 2°44.2 267.9 13.9 264 11.4
2011-05-19 08:35:52 51°11.631 2°44.17 267.9 13.9 264 11.3
2011-05-19 08:35:57 51°11.629 2°44.139 267.7 13.8 263 11.3
2011-05-19 08:36:01 51°11.627 2°44.115 267.3 13.9 264 11.3
2011-05-19 08:36:07 51°11.625 2°44.079 267.3 13.8 263 11.2
2011-05-19 08:36:12 51°11.622 2°44.048 267.2 13.8 263 11.2
2011-05-19 08:36:17 51°11.62 2°44.018 266.5 13.9 263 11.1
2011-05-19 08:36:21 51°11.618 2°43.994 266.3 13.9 262 11.2
2011-05-19 08:36:26 51°11.615 2°43.963 266.2 13.8 262 11.1
2011-05-19 08:36:32 51°11.612 2°43.927 266.1 13.8 262 11
2011-05-19 08:36:36 51°11.61 2°43.903 265.8 13.9 262 11.1
2011-05-19 08:36:41 51°11.607 2°43.872 265.9 13.9 263 11
2011-05-19 08:36:47 51°11.604 2°43.836 266 13.9 262 11
2011-05-19 08:36:52 51°11.602 2°43.806 266 13.8 263 11
2011-05-19 08:36:57 51°11.599 2°43.776 266.1 13.8 262 11
2011-05-19 08:37:02 51°11.596 2°43.746 266 13.8 262 10.9
2011-05-19 08:37:07 51°11.594 2°43.716 265.7 13.8 262 10.8
2011-05-19 08:37:12 51°11.591 2°43.685 265.1 13.8 261 10.8
2011-05-19 08:37:17 51°11.587 2°43.656 264.3 13.8 259 10.9
2011-05-19 08:37:22 51°11.583 2°43.626 262.8 13.8 258 10.8
2011-05-19 08:37:26 51°11.58 2°43.602 261.4 13.8 258 10.7
2011-05-19 08:37:32 51°11.575 2°43.566 260.8 13.8 257 10.8
2011-05-19 08:37:37 51°11.571 2°43.537 260.5 13.8 257 10.5
2011-05-19 08:37:42 51°11.566 2°43.507 260.2 13.8 257 10.9
2011-05-19 08:37:46 51°11.563 2°43.483 260.6 13.8 258 10.7
2011-05-19 08:37:51 51°11.559 2°43.454 261 13.8 259 10.6
2011-05-19 08:37:56 51°11.556 2°43.424 262 13.8 259 10.7
2011-05-19 08:38:02 51°11.552 2°43.388 262.7 13.8 260 10.5
2011-05-19 08:38:06 51°11.549 2°43.364 263.5 13.8 260 10.5
2011-05-19 08:38:12 51°11.546 2°43.328 263.9 13.7 261 10.3
2011-05-19 08:38:17 51°11.543 2°43.298 264.3 13.7 261 10.3
2011-05-19 08:38:22 51°11.54 2°43.268 264.7 13.8 262 10.3
2011-05-19 08:38:27 51°11.537 2°43.237 265.2 13.8 262 10.2
2011-05-19 08:38:31 51°11.535 2°43.213 265.6 13.8 262 10.1
2011-05-19 08:38:37 51°11.533 2°43.177 266.3 13.7 263 10.2
2011-05-19 08:38:42 51°11.531 2°43.147 266.8 13.7 264 10.3
2011-05-19 08:38:47 51°11.529 2°43.117 267.2 13.8 263 10.2
2011-05-19 08:38:52 51°11.526 2°43.086 267.3 13.8 264 10.3
2011-05-19 08:38:56 51°11.525 2°43.062 267.4 13.8 264 10.3
2011-05-19 08:39:02 51°11.522 2°43.026 267.6 13.8 263 10.2
2011-05-19 08:39:07 51°11.52 2°42.996 267.1 13.8 263 10.2
2011-05-19 08:39:11 51°11.518 2°42.972 266.5 13.8 263 10.3
2011-05-19 08:39:17 51°11.514 2°42.936 265.8 13.8 261 10.3
2011-05-19 08:39:22 51°11.511 2°42.906 265 13.8 260 10.2
2011-05-19 08:39:27 51°11.507 2°42.876 263.5 13.8 259 10.3
2011-05-19 08:39:31 51°11.504 2°42.852 262.1 13.8 258 10.2
2011-05-19 08:39:36 51°11.5 2°42.822 261.1 13.8 258 10.2
2011-05-19 08:39:41 51°11.496 2°42.792 260.9 13.8 257 10.2
2011-05-19 08:39:46 51°11.491 2°42.763 260.6 13.8 257 10.2
2011-05-19 08:39:51 51°11.487 2°42.733 260 13.8 257 10.2
2011-05-19 08:39:56 51°11.483 2°42.704 260 13.8 257 10.2
2011-05-19 08:40:02 51°11.477 2°42.668 259.9 13.8 257 10.2
2011-05-19 08:40:07 51°11.473 2°42.638 260 13.9 257 10.3
2011-05-19 08:40:12 51°11.469 2°42.608 260.6 13.9 258 10.4
2011-05-19 08:40:16 51°11.466 2°42.584 261.5 13.9 258 10.4
2011-05-19 08:40:21 51°11.462 2°42.554 261.9 13.9 259 10.2
2011-05-19 08:40:27 51°11.459 2°42.518 262.8 13.9 260 10.3
2011-05-19 08:40:32 51°11.455 2°42.488 263.2 13.9 259 10.4
2011-05-19 08:40:36 51°11.452 2°42.464 263.5 13.9 260 10.4
2011-05-19 08:40:42 51°11.448 2°42.428 263.6 13.9 259 10.6
2011-05-19 08:40:46 51°11.445 2°42.403 263.4 13.9 258 10.6
2011-05-19 08:40:52 51°11.439 2°42.368 261.4 13.9 256 10.7
2011-05-19 08:40:56 51°11.435 2°42.344 259.4 13.9 255 10.5
2011-05-19 08:41:02 51°11.428 2°42.309 257.3 13.9 252 10.7
2011-05-19 08:41:07 51°11.422 2°42.28 255.7 13.9 251 10.5
2011-05-19 08:41:12 51°11.415 2°42.251 254 13.9 250 10.6
2011-05-19 08:41:16 51°11.41 2°42.228 253.1 13.9 250 10.4
2011-05-19 08:41:21 51°11.403 2°42.199 252.3 14 249 10.7
2011-05-19 08:41:26 51°11.396 2°42.17 251.2 14 248 10.5
2011-05-19 08:41:32 51°11.387 2°42.136 250.6 14 247 10.6
2011-05-19 08:41:36 51°11.381 2°42.114 249.5 14 246 10.6
2011-05-19 08:41:41 51°11.372 2°42.086 248 14 245 10.9
2011-05-19 08:41:46 51°11.364 2°42.058 247.2 14 245 10.7
2011-05-19 08:41:53 51°11.352 2°42.02 246.2 14 243 10.7
2011-05-19 08:41:57 51°11.345 2°41.998 245.7 14 244 10.7
2011-05-19 08:42:02 51°11.336 2°41.97 245.4 14 243 10.7
2011-05-19 08:42:06 51°11.329 2°41.948 245 14 243 10.7
2011-05-19 08:42:12 51°11.319 2°41.915 245.4 14 243 10.8
2011-05-19 08:42:17 51°11.31 2°41.887 245.4 14.1 244 11
2011-05-19 08:42:22 51°11.302 2°41.859 246 14.1 244 11
2011-05-19 08:42:26 51°11.295 2°41.837 246.7 14.1 245 10.9
2011-05-19 08:42:32 51°11.286 2°41.803 247.1 14.1 246 11
2011-05-19 08:42:37 51°11.278 2°41.774 247.6 14 245 10.8
2011-05-19 08:42:42 51°11.269 2°41.746 247.9 14.1 246 10.9
2011-05-19 08:42:46 51°11.263 2°41.723 248 14.1 245 10.9
2011-05-19 08:42:52 51°11.252 2°41.69 246.8 14.1 243 11.1
2011-05-19 08:42:57 51°11.243 2°41.663 245.4 14.1 242 11.1
2011-05-19 08:43:01 51°11.235 2°41.641 243.2 14.1 240 11.4
2011-05-19 08:43:07 51°11.223 2°41.609 241.7 14.1 239 11
2011-05-19 08:43:12 51°11.213 2°41.583 240.6 14.1 238 11.2
2011-05-19 08:43:16 51°11.205 2°41.562 239.6 14.1 238 11.2
2011-05-19 08:43:21 51°11.194 2°41.535 239.1 14.1 238 11.4
2011-05-19 08:43:27 51°11.181 2°41.504 238.9 14.1 237 11.3
2011-05-19 08:43:32 51°11.171 2°41.477 238.6 14.1 237 11.3
2011-05-19 08:43:37 51°11.16 2°41.451 238.3 14.2 237 11.4
2011-05-19 08:43:41 51°11.152 2°41.43 238.2 14.2 237 11.4
2011-05-19 08:43:46 51°11.141 2°41.403 238.3 14.2 238 11.4
2011-05-19 08:43:51 51°11.131 2°41.377 238.9 14.2 238 11.5
2011-05-19 08:43:56 51°11.121 2°41.35 239.6 14.2 240 11.5
2011-05-19 08:44:02 51°11.109 2°41.318 240.4 14.2 240 11.6
2011-05-19 08:44:07 51°11.1 2°41.29 241.8 14.2 241 11.7
2011-05-19 08:44:12 51°11.09 2°41.262 242.5 14.2 242 11.7
2011-05-19 08:44:17 51°11.082 2°41.234 243.8 14.2 243 11.7
2011-05-19 08:44:22 51°11.073 2°41.206 244.7 14.2 243 11.8
2011-05-19 08:44:26 51°11.065 2°41.184 244.7 14.2 244 11.8
2011-05-19 08:44:31 51°11.057 2°41.156 244.9 14.2 243 11.7
2011-05-19 08:44:37 51°11.046 2°41.122 245.2 14.2 243 11.8
2011-05-19 08:44:42 51°11.037 2°41.094 245.1 14.2 244 12
2011-05-19 08:44:46 51°11.03 2°41.072 245.1 14.2 243 11.8
2011-05-19 08:44:51 51°11.021 2°41.044 244.9 14.2 243 11.7
2011-05-19 08:44:57 51°11.01 2°41.01 244.7 14.2 242 11.9
2011-05-19 08:45:02 51°11.001 2°40.983 244.2 14.2 242 11.8
2011-05-19 08:45:06 51°10.994 2°40.961 243.3 14.2 241 12
2011-05-19 08:45:11 51°10.984 2°40.934 242.3 14.2 240 12.1
2011-05-19 08:45:16 51°10.974 2°40.907 241 14.2 239 12
2011-05-19 08:45:22 51°10.962 2°40.874 240.4 14.2 239 12.1
2011-05-19 08:45:27 51°10.951 2°40.848 239.7 14.2 238 12
2011-05-19 08:45:32 51°10.941 2°40.821 239.1 14.2 238 12.1
2011-05-19 08:45:37 51°10.93 2°40.795 238.7 14.2 237 12.1
2011-05-19 08:45:42 51°10.92 2°40.768 238.6 14.2 238 12.2
2011-05-19 08:45:47 51°10.909 2°40.742 238.2 14.3 237 12.2
2011-05-19 08:45:51 51°10.901 2°40.72 238.3 14.3 239 12.2
2011-05-19 08:45:56 51°10.89 2°40.694 239.1 14.2 239 12.3
2011-05-19 08:46:01 51°10.88 2°40.667 239.7 14.3 239 12.4
2011-05-19 08:46:07 51°10.869 2°40.633 240.8 14.3 241 12.4
2011-05-19 08:46:11 51°10.861 2°40.611 242 14.3 242 12.5
2011-05-19 08:46:16 51°10.853 2°40.583 243.2 14.3 243 12.5
2011-05-19 08:46:21 51°10.844 2°40.554 244.5 14.4 245 12.5
2011-05-19 08:46:27 51°10.834 2°40.52 245.9 14.3 245 12.5
2011-05-19 08:46:31 51°10.828 2°40.497 246.9 14.4 246 12.6
2011-05-19 08:46:36 51°10.82 2°40.468 247.6 14.4 247 12.7
2011-05-19 08:46:42 51°10.81 2°40.433 248 14.4 246 12.7
2011-05-19 08:46:47 51°10.803 2°40.403 248.2 14.4 247 12.7
2011-05-19 08:46:51 51°10.796 2°40.38 248.6 14.4 247 12.7
2011-05-19 08:46:57 51°10.787 2°40.345 248.3 14.4 246 12.8
2011-05-19 08:47:02 51°10.779 2°40.316 248.1 14.4 247 12.9
2011-05-19 08:47:06 51°10.773 2°40.292 248.1 14.5 246 12.9
2011-05-19 08:47:11 51°10.764 2°40.263 247.7 14.5 246 12.9
2011-05-19 08:47:16 51°10.756 2°40.234 247.5 14.4 245 13
2011-05-19 08:47:22 51°10.746 2°40.199 246.8 14.5 245 13
2011-05-19 08:47:27 51°10.737 2°40.17 246.1 14.5 244 13.1
2011-05-19 08:47:31 51°10.73 2°40.148 245.5 14.5 244 13.2
2011-05-19 08:47:36 51°10.721 2°40.119 244.7 14.5 243 13.2
2011-05-19 08:47:42 51°10.71 2°40.085 244 14.5 243 13.2
2011-05-19 08:47:47 51°10.7 2°40.056 243.4 14.5 242 13.3
2011-05-19 08:47:51 51°10.693 2°40.034 242.9 14.5 241 13.3
2011-05-19 08:47:55 51°10.685 2°40.011 242.4 14.5 242 13.4
2011-05-19 08:48:01 51°10.673 2°39.977 242.3 14.6 242 13.5
2011-05-19 08:48:07 51°10.662 2°39.943 242.8 14.6 243 13.5
2011-05-19 08:48:11 51°10.655 2°39.92 243.2 14.6 242 13.6
2011-05-19 08:48:16 51°10.646 2°39.891 243.5 14.6 243 13.7
2011-05-19 08:48:21 51°10.637 2°39.863 244.1 14.6 244 13.7
2011-05-19 08:48:27 51°10.626 2°39.828 244.7 14.6 244 13.8
2011-05-19 08:48:31 51°10.619 2°39.805 245.1 14.6 244 13.9
2011-05-19 08:48:36 51°10.61 2°39.776 245.6 14.6 245 13.8
2011-05-19 08:48:42 51°10.6 2°39.74 246.1 14.6 246 14
2011-05-19 08:48:47 51°10.592 2°39.711 246.9 14.6 246 13.9
2011-05-19 08:48:51 51°10.585 2°39.687 247.7 14.6 247 14
2011-05-19 08:48:56 51°10.577 2°39.657 247.9 14.6 246 13.9
2011-05-19 08:49:01 51°10.569 2°39.628 248.3 14.6 247 14
2011-05-19 08:49:06 51°10.562 2°39.598 248.7 14.6 247 14.1
2011-05-19 08:49:11 51°10.553 2°39.569 248.5 14.6 246 14.1
2011-05-19 08:49:16 51°10.545 2°39.539 248 14.6 246 14.2
2011-05-19 08:49:22 51°10.535 2°39.504 247.6 14.6 246 14.2
2011-05-19 08:49:27 51°10.527 2°39.474 247.1 14.7 245 14.2
2011-05-19 08:49:31 51°10.52 2°39.451 246.9 14.7 245 14.2
2011-05-19 08:49:36 51°10.511 2°39.422 246.2 14.6 245 14.3
2011-05-19 08:49:42 51°10.501 2°39.387 245.7 14.7 244 14.4
2011-05-19 08:49:47 51°10.491 2°39.358 245.2 14.7 243 14.4
2011-05-19 08:49:52 51°10.482 2°39.33 244.2 14.7 242 14.5
2011-05-19 08:49:56 51°10.474 2°39.306 243.3 14.7 242 14.5
2011-05-19 08:50:02 51°10.463 2°39.273 242.5 14.7 241 14.5
2011-05-19 08:50:07 51°10.453 2°39.244 242.5 14.7 242 14.5
2011-05-19 08:50:12 51°10.443 2°39.216 242.5 14.7 241 14.6
2011-05-19 08:50:16 51°10.436 2°39.193 242.5 14.7 242 14.5
2011-05-19 08:50:22 51°10.425 2°39.158 243 14.7 242 14.4
2011-05-19 08:50:27 51°10.416 2°39.129 243.7 14.6 244 14.5
2011-05-19 08:50:32 51°10.407 2°39.1 244.9 14.6 244 14.4
2011-05-19 08:50:36 51°10.4 2°39.077 245.6 14.7 244 14.5
2011-05-19 08:50:42 51°10.39 2°39.041 246.2 14.6 246 14.5
2011-05-19 08:50:47 51°10.381 2°39.012 246.8 14.6 245 14.6
2011-05-19 08:50:52 51°10.373 2°38.982 247.1 14.7 247 14.8
2011-05-19 08:50:56 51°10.367 2°38.958 247.7 14.7 246 15
2011-05-19 08:51:02 51°10.357 2°38.923 247.8 14.7 247 15
2011-05-19 08:51:07 51°10.349 2°38.893 248.2 14.7 246 15
2011-05-19 08:51:12 51°10.341 2°38.864 247.8 14.6 246 15.1
2011-05-19 08:51:16 51°10.334 2°38.841 247.3 14.6 245 15.1
2011-05-19 08:51:22 51°10.324 2°38.805 247 14.6 245 15
2011-05-19 08:51:26 51°10.317 2°38.782 246.4 14.6 244 15.1
2011-05-19 08:51:31 51°10.308 2°38.753 245.9 14.6 244 15.2
2011-05-19 08:51:36 51°10.299 2°38.724 245.1 14.6 243 15.2
2011-05-19 08:51:42 51°10.288 2°38.69 244.1 14.6 243 15.3
2011-05-19 08:51:46 51°10.28 2°38.667 243.4 14.6 242 15.3
2011-05-19 08:51:52 51°10.268 2°38.633 242.6 14.6 241 15.2
2011-05-19 08:51:56 51°10.26 2°38.611 242 14.6 241 15.2
2011-05-19 08:52:02 51°10.249 2°38.577 241.9 14.6 241 15.2
2011-05-19 08:52:07 51°10.239 2°38.549 241.7 14.7 241 15.1
2011-05-19 08:52:12 51°10.229 2°38.52 241.9 14.7 242 15.2
2011-05-19 08:52:16 51°10.222 2°38.497 242.9 14.6 242 15.1
2011-05-19 08:52:21 51°10.212 2°38.469 243.1 14.6 242 15.1
2011-05-19 08:52:26 51°10.203 2°38.44 243.6 14.6 243 15.1
2011-05-19 08:52:32 51°10.192 2°38.405 244 14.6 243 14.9
2011-05-19 08:52:36 51°10.185 2°38.382 244.3 14.7 243 15.2
2011-05-19 08:52:41 51°10.176 2°38.353 244.8 14.7 244 15
2011-05-19 08:52:47 51°10.165 2°38.318 245.4 14.7 244 15
2011-05-19 08:52:52 51°10.157 2°38.289 246 14.7 245 15.1
2011-05-19 08:52:56 51°10.15 2°38.265 246.6 14.7 246 15.4
2011-05-19 08:53:01 51°10.142 2°38.235 247.2 14.7 247 15.3
2011-05-19 08:53:07 51°10.132 2°38.199 247.8 14.7 247 15.6
2011-05-19 08:53:12 51°10.124 2°38.17 248.1 14.7 247 15.6
2011-05-19 08:53:16 51°10.118 2°38.146 248.3 14.8 246 15.7
2011-05-19 08:53:20 51°10.111 2°38.122 247.9 14.7 246 15.6
2011-05-19 08:53:26 51°10.101 2°38.087 247.5 14.7 246 15.6
2011-05-19 08:53:31 51°10.093 2°38.057 247.5 14.7 245 15.6
2011-05-19 08:53:36 51°10.084 2°38.028 247 14.7 245 15.7
2011-05-19 08:53:42 51°10.074 2°37.992 246.1 14.7 244 15.6
2011-05-19 08:53:47 51°10.065 2°37.963 245.6 14.7 244 15.6
2011-05-19 08:53:52 51°10.055 2°37.934 245.1 14.7 243 15.7
2011-05-19 08:53:57 51°10.046 2°37.905 244.5 14.7 243 15.6
2011-05-19 08:54:02 51°10.037 2°37.877 244.1 14.7 243 15.7
2011-05-19 08:54:06 51°10.029 2°37.854 243.7 14.7 242 15.7
2011-05-19 08:54:12 51°10.018 2°37.819 243.2 14.7 242 15.9
2011-05-19 08:54:17 51°10.008 2°37.791 242.8 14.7 242 15.9
2011-05-19 08:54:22 51°9.998 2°37.762 242.4 14.7 241 15.9
2011-05-19 08:54:26 51°9.991 2°37.739 242.5 14.7 242 15.9
2011-05-19 08:54:32 51°9.98 2°37.704 243.2 14.8 243 15.9
2011-05-19 08:54:37 51°9.97 2°37.675 243.8 14.7 243 16
2011-05-19 08:54:41 51°9.963 2°37.652 244.3 14.7 243 16.1
2011-05-19 08:54:47 51°9.952 2°37.617 244.6 14.8 244 16.1
2011-05-19 08:54:52 51°9.943 2°37.587 245 14.8 244 16
2011-05-19 08:54:57 51°9.934 2°37.558 245.4 14.8 245 16
2011-05-19 08:55:01 51°9.928 2°37.534 246.1 14.7 246 16
2011-05-19 08:55:06 51°9.919 2°37.504 246.6 14.8 245 16
2011-05-19 08:55:12 51°9.91 2°37.468 247.3 14.8 247 16
2011-05-19 08:55:17 51°9.901 2°37.439 247.6 14.8 246 16.1
2011-05-19 08:55:21 51°9.895 2°37.415 247.8 14.8 247 16.1
2011-05-19 08:55:26 51°9.887 2°37.385 247.8 14.8 247 16
2011-05-19 08:55:32 51°9.877 2°37.349 248 14.8 247 16.1
2011-05-19 08:55:37 51°9.869 2°37.319 248 14.8 247 16.1
2011-05-19 08:55:41 51°9.862 2°37.295 248 14.8 246 16
2011-05-19 08:55:46 51°9.854 2°37.265 247.7 14.8 246 16.1
2011-05-19 08:55:52 51°9.844 2°37.23 247.5 14.8 245 16
2011-05-19 08:55:57 51°9.835 2°37.2 246.9 14.8 245 16
2011-05-19 08:56:01 51°9.828 2°37.177 245.8 14.8 244 16
2011-05-19 08:56:06 51°9.819 2°37.148 245 14.8 243 15.9
2011-05-19 08:56:11 51°9.809 2°37.119 244 14.8 242 15.9
2011-05-19 08:56:18 51°9.796 2°37.079 243.2 14.8 242 15.9
2011-05-19 08:56:21 51°9.79 2°37.061 242.5 14.8 242 15.9
2011-05-19 08:56:25 51°9.782 2°37.038 242.5 14.8 241 15.9
2011-05-19 08:56:31 51°9.771 2°37.004 242 14.8 241 15.8
2011-05-19 08:56:36 51°9.761 2°36.976 241.8 14.8 241 15.9
2011-05-19 08:56:41 51°9.751 2°36.947 241.8 14.8 241 15.8
2011-05-19 08:56:46 51°9.741 2°36.918 242 14.8 242 15.7
2011-05-19 08:56:51 51°9.732 2°36.89 242.9 14.6 243 15.5
2011-05-19 08:56:56 51°9.723 2°36.862 243.5 14.1 243 15.4
2011-05-19 08:57:01 51°9.714 2°36.835 243.8 13.5 243 16.1
2011-05-19 08:57:05 51°9.708 2°36.814 244.2 12.7 244 15.8
2011-05-19 08:57:11 51°9.699 2°36.786 244.6 12 244 15.5
2011-05-19 08:57:16 51°9.692 2°36.763 245 11.3 244 16.3
2011-05-19 08:57:22 51°9.684 2°36.737 245.5 10.8 244 15.9
2011-05-19 08:57:26 51°9.68 2°36.721 246 10.3 245 15.9
2011-05-19 08:57:31 51°9.674 2°36.701 246.8 9.8 245 15.9
2011-05-19 08:57:37 51°9.668 2°36.679 247.1 9.4 246 16
2011-05-19 08:57:41 51°9.663 2°36.664 248.2 9 246 16.1
2011-05-19 08:57:45 51°9.66 2°36.65 248.6 8.6 246 16.2
2011-05-19 08:57:51 51°9.654 2°36.63 249.4 8.2 246 16.1
2011-05-19 08:57:57 51°9.649 2°36.611 249.8 7.7 247 16.1
2011-05-19 08:58:01 51°9.646 2°36.599 249.1 7.5 245 15.5
2011-05-19 08:58:05 51°9.642 2°36.588 247.6 7 244 15.7
2011-05-19 08:58:11 51°9.637 2°36.572 246.1 6.7 242 16.1
2011-05-19 08:58:16 51°9.633 2°36.559 243.9 6.5 241 16.1
2011-05-19 08:58:22 51°9.627 2°36.545 241 6.3 239 15.8
2011-05-19 08:58:27 51°9.623 2°36.534 238.6 6.1 238 16.2
2011-05-19 08:58:32 51°9.618 2°36.524 236.5 5.8 236 15.9
2011-05-19 08:58:37 51°9.614 2°36.514 233.5 5.7 234 15.9
2011-05-19 08:58:42 51°9.609 2°36.504 229.4 5.5 232 16
2011-05-19 08:58:46 51°9.605 2°36.498 225.5 5.3 228 15.9
2011-05-19 08:58:52 51°9.599 2°36.488 222.2 5.2 226 15.9
2011-05-19 08:58:57 51°9.594 2°36.48 218 5 223 16
2011-05-19 08:59:02 51°9.589 2°36.474 213.5 4.8 221 15.9
2011-05-19 08:59:06 51°9.585 2°36.468 209.7 4.7 219 15.9
2011-05-19 08:59:12 51°9.579 2°36.461 206.9 4.6 218 15.7
2011-05-19 08:59:17 51°9.574 2°36.456 203.2 4.4 216 15.9
2011-05-19 08:59:22 51°9.569 2°36.45 199.2 4.2 214 15.9
2011-05-19 08:59:26 51°9.565 2°36.447 196.9 4.1 214 15.9
2011-05-19 08:59:32 51°9.56 2°36.441 195.8 4 213 15.9
2011-05-19 08:59:37 51°9.555 2°36.437 194.7 3.7 214 15.9
2011-05-19 08:59:42 51°9.552 2°36.432 193.7 3.4 214 15.9
2011-05-19 08:59:46 51°9.549 2°36.43 191.1 3 214 15.9
2011-05-19 08:59:52 51°9.545 2°36.425 188.2 2.8 216 15.9
2011-05-19 08:59:57 51°9.542 2°36.422 185.9 2.5 218 15.9
2011-05-19 09:00:02 51°9.54 2°36.418 183 2.3 222 15.9
2011-05-19 09:00:06 51°9.538 2°36.415 180.8 2.2 225 15.9
2011-05-19 09:00:12 51°9.536 2°36.411 178.8 2 231 15.9
2011-05-19 09:00:17 51°9.535 2°36.408 177.8 1.9 235 15.9
2011-05-19 09:00:22 51°9.534 2°36.405 176.6 1.7 241 15.9
2011-05-19 09:00:26 51°9.533 2°36.402 175.6 1.7 251 15.9
2011-05-19 09:00:31 51°9.533 2°36.398 174.9 1.7 257 15.9
2011-05-19 09:00:37 51°9.532 2°36.394 174.3 1.7 257 15.9
2011-05-19 09:00:42 51°9.531 2°36.391 174.3 1.7 257 15.8
2011-05-19 09:00:46 51°9.531 2°36.388 174.6 1.7 257 15.9
2011-05-19 09:00:52 51°9.53 2°36.383 175 1.7 256 15.9
2011-05-19 09:00:56 51°9.53 2°36.38 175.5 1.6 255 6.8
2011-05-19 09:01:02 51°9.529 2°36.376 176 1.7 255 -999
2011-05-19 09:01:07 51°9.529 2°36.373 176.5 1.6 254 16
2011-05-19 09:01:12 51°9.528 2°36.369 177.1 1.7 255 16.3
2011-05-19 09:01:17 51°9.527 2°36.366 177.4 1.6 255 16.1
2011-05-19 09:01:22 51°9.527 2°36.362 177.9 1.7 255 15.9
2011-05-19 09:01:26 51°9.526 2°36.359 178.3 1.6 252 15.9
2011-05-19 09:01:31 51°9.525 2°36.356 178.7 1.6 252 15.9
2011-05-19 09:01:36 51°9.525 2°36.353 179.1 1.6 252 15.9
2011-05-19 09:01:41 51°9.524 2°36.349 179.4 1.6 252 15.9
2011-05-19 09:01:46 51°9.523 2°36.346 179.8 1.6 252 16
2011-05-19 09:01:51 51°9.523 2°36.343 180.1 1.6 250 16
2011-05-19 09:01:56 51°9.522 2°36.34 180.4 1.6 251 16
2011-05-19 09:02:01 51°9.521 2°36.336 180.7 1.6 249 16
2011-05-19 09:02:06 51°9.521 2°36.333 180.9 1.6 248 15.9
2011-05-19 09:02:11 51°9.52 2°36.33 181.2 1.6 250 15.9
2011-05-19 09:02:16 51°9.519 2°36.326 181.3 1.6 249 15.9
2011-05-19 09:02:21 51°9.518 2°36.323 181.5 1.6 249 15.9
2011-05-19 09:02:26 51°9.517 2°36.32 181.6 1.6 248 16
2011-05-19 09:02:31 51°9.516 2°36.317 181.8 1.6 247 16
2011-05-19 09:02:36 51°9.516 2°36.314 181.8 1.6 248 15.9
2011-05-19 09:02:41 51°9.515 2°36.31 181.9 1.6 247 15.9
2011-05-19 09:02:46 51°9.514 2°36.307 181.9 1.6 246 16
2011-05-19 09:02:50 51°9.513 2°36.305 181.9 1.6 247 15.9
2011-05-19 09:02:56 51°9.512 2°36.301 181.9 1.6 246 16
2011-05-19 09:03:01 51°9.511 2°36.298 182.1 1.6 246 16
2011-05-19 09:03:06 51°9.51 2°36.295 182.1 1.6 246 15.9
2011-05-19 09:03:11 51°9.509 2°36.291 182.1 1.6 245 16
2011-05-19 09:03:16 51°9.509 2°36.288 182.1 1.6 244 15.9
2011-05-19 09:03:22 51°9.507 2°36.284 182.2 1.6 246 15.9
2011-05-19 09:03:26 51°9.507 2°36.282 182.3 1.6 245 16
2011-05-19 09:03:31 51°9.506 2°36.279 182.3 1.6 246 16
2011-05-19 09:03:36 51°9.505 2°36.275 182.3 1.6 245 16
2011-05-19 09:03:41 51°9.504 2°36.272 182.3 1.6 243 15.9
2011-05-19 09:03:46 51°9.503 2°36.269 182.4 1.6 242 16
2011-05-19 09:03:51 51°9.502 2°36.266 182.4 1.6 245 15.9
2011-05-19 09:03:56 51°9.501 2°36.263 182.5 1.6 243 15.9
2011-05-19 09:04:01 51°9.5 2°36.26 182.5 1.6 242 15.9
2011-05-19 09:04:06 51°9.499 2°36.256 182.5 1.6 243 16
2011-05-19 09:04:11 51°9.498 2°36.253 182.6 1.6 243 15.9
2011-05-19 09:04:16 51°9.497 2°36.25 182.7 1.6 244 16
2011-05-19 09:04:21 51°9.496 2°36.246 182.6 1.6 242 15.9
2011-05-19 09:04:26 51°9.495 2°36.243 182.6 1.6 243 16
2011-05-19 09:04:31 51°9.494 2°36.24 182.6 1.6 243 16
2011-05-19 09:04:36 51°9.493 2°36.237 182.6 1.6 242 16
2011-05-19 09:04:41 51°9.492 2°36.233 182.5 1.6 242 16
2011-05-19 09:04:46 51°9.491 2°36.23 182.3 1.6 242 16
2011-05-19 09:04:51 51°9.49 2°36.227 182.2 1.6 242 16
2011-05-19 09:04:56 51°9.489 2°36.223 182.1 1.6 242 16
2011-05-19 09:05:02 51°9.488 2°36.22 181.8 1.6 242 16
2011-05-19 09:05:06 51°9.487 2°36.217 181.7 1.6 241 16
2011-05-19 09:05:11 51°9.486 2°36.214 181.5 1.6 241 16
2011-05-19 09:05:17 51°9.485 2°36.21 181.5 1.6 241 16.1
2011-05-19 09:05:22 51°9.483 2°36.207 181.4 1.7 242 16
2011-05-19 09:05:26 51°9.483 2°36.204 181.2 1.7 242 16
2011-05-19 09:05:30 51°9.482 2°36.201 181.1 1.7 242 16
2011-05-19 09:05:36 51°9.481 2°36.197 180.9 1.6 241 16.1
2011-05-19 09:05:42 51°9.48 2°36.193 180.8 1.6 241 16
2011-05-19 09:05:46 51°9.479 2°36.191 180.8 1.7 241 16.1
2011-05-19 09:05:51 51°9.478 2°36.187 180.8 1.7 239 16.1
2011-05-19 09:05:56 51°9.477 2°36.184 180.7 1.6 240 16
2011-05-19 09:06:01 51°9.476 2°36.181 180.7 1.7 241 16
2011-05-19 09:06:06 51°9.474 2°36.177 180.6 1.7 240 15.9
2011-05-19 09:06:11 51°9.473 2°36.175 180.7 1.7 241 16
2011-05-19 09:06:16 51°9.471 2°36.173 180.7 1.7 241 16.1
2011-05-19 09:06:21 51°9.47 2°36.17 180.8 1.7 241 16.1
2011-05-19 09:06:26 51°9.469 2°36.166 180.8 1.7 241 16
2011-05-19 09:06:31 51°9.468 2°36.163 180.8 1.7 241 16
2011-05-19 09:06:36 51°9.467 2°36.16 180.8 1.7 241 16
2011-05-19 09:06:41 51°9.466 2°36.156 180.9 1.7 240 16
2011-05-19 09:06:46 51°9.465 2°36.153 181 1.7 240 16
2011-05-19 09:06:51 51°9.464 2°36.15 181 1.7 241 16
2011-05-19 09:06:56 51°9.462 2°36.147 181 1.7 239 16
2011-05-19 09:07:01 51°9.461 2°36.143 181.1 1.7 239 16
2011-05-19 09:07:06 51°9.46 2°36.14 181.1 1.7 240 15.9
2011-05-19 09:07:10 51°9.459 2°36.138 181.1 1.7 240 16.1
2011-05-19 09:07:16 51°9.458 2°36.134 181.1 1.7 239 16
2011-05-19 09:07:21 51°9.457 2°36.13 181.1 1.7 239 16
2011-05-19 09:07:26 51°9.456 2°36.127 181.1 1.7 239 15.9
2011-05-19 09:07:31 51°9.454 2°36.124 181.1 1.7 240 16
2011-05-19 09:07:36 51°9.453 2°36.121 181.2 1.7 240 15.9
2011-05-19 09:07:42 51°9.452 2°36.117 181.2 1.7 238 16
2011-05-19 09:07:46 51°9.451 2°36.114 181.1 1.7 237 16
2011-05-19 09:07:50 51°9.45 2°36.112 181 1.7 239 16
2011-05-19 09:07:56 51°9.448 2°36.108 181 1.7 238 16
2011-05-19 09:08:02 51°9.447 2°36.104 181 1.7 238 15.9
2011-05-19 09:08:06 51°9.446 2°36.102 181 1.7 238 16
2011-05-19 09:08:11 51°9.445 2°36.098 181 1.7 238 16
2011-05-19 09:08:16 51°9.444 2°36.095 181 1.7 239 16
2011-05-19 09:08:21 51°9.442 2°36.092 181 1.7 239 15.9
2011-05-19 09:08:26 51°9.441 2°36.089 181 1.7 240 16
2011-05-19 09:08:31 51°9.44 2°36.086 181 1.7 240 16
2011-05-19 09:08:36 51°9.438 2°36.082 181 1.7 240 15.9
2011-05-19 09:08:41 51°9.437 2°36.08 181 1.7 239 15.9
2011-05-19 09:08:46 51°9.436 2°36.076 181.1 1.7 238 16
2011-05-19 09:08:51 51°9.435 2°36.073 181.1 1.7 238 16
2011-05-19 09:08:56 51°9.433 2°36.07 181.2 1.7 238 16
2011-05-19 09:09:01 51°9.432 2°36.067 181.2 1.7 236 16
2011-05-19 09:09:06 51°9.431 2°36.064 181.2 1.7 235 15.9
2011-05-19 09:09:11 51°9.429 2°36.061 181.4 1.7 237 16
2011-05-19 09:09:16 51°9.428 2°36.057 181.5 1.7 238 16
2011-05-19 09:09:22 51°9.427 2°36.054 181.5 1.7 237 16
2011-05-19 09:09:26 51°9.426 2°36.051 181.7 1.7 238 16
2011-05-19 09:09:31 51°9.424 2°36.048 181.8 1.7 238 16
2011-05-19 09:09:37 51°9.423 2°36.044 181.8 1.8 238 16
2011-05-19 09:09:42 51°9.422 2°36.04 182 1.7 238 16.1
2011-05-19 09:09:46 51°9.421 2°36.038 182 1.8 238 16
2011-05-19 09:09:50 51°9.42 2°36.035 182.1 1.7 237 16
2011-05-19 09:09:56 51°9.418 2°36.031 182.3 1.7 237 16
2011-05-19 09:10:02 51°9.417 2°36.027 182.3 1.7 239 16.1
2011-05-19 09:10:06 51°9.416 2°36.025 182.4 1.8 239 16.1
2011-05-19 09:10:11 51°9.414 2°36.022 182.6 1.7 237 16
2011-05-19 09:10:16 51°9.413 2°36.018 182.7 1.8 236 16
2011-05-19 09:10:21 51°9.412 2°36.015 182.9 1.8 237 16
2011-05-19 09:10:26 51°9.41 2°36.012 183 1.8 239 16
2011-05-19 09:10:30 51°9.409 2°36.009 183 1.7 236 16.1
2011-05-19 09:10:36 51°9.408 2°36.005 183.2 1.8 237 16.1
2011-05-19 09:10:41 51°9.407 2°36.002 183.4 1.7 239 16.1
2011-05-19 09:10:46 51°9.405 2°35.998 183.6 1.8 239 16.1
2011-05-19 09:10:51 51°9.404 2°35.995 183.7 1.8 238 16.1
2011-05-19 09:10:56 51°9.402 2°35.993 183.8 1.8 237 16.1
2011-05-19 09:11:01 51°9.4 2°35.99 184 1.8 238 16.1
2011-05-19 09:11:06 51°9.399 2°35.987 184.2 1.8 238 16.1
2011-05-19 09:11:11 51°9.397 2°35.984 184.3 1.8 237 16.1
2011-05-19 09:11:16 51°9.396 2°35.98 184.5 1.8 239 16.1
2011-05-19 09:11:21 51°9.395 2°35.976 184.5 1.8 237 16
2011-05-19 09:11:26 51°9.393 2°35.973 184.6 1.8 237 16.1
2011-05-19 09:11:31 51°9.392 2°35.969 184.8 1.8 239 16.1
2011-05-19 09:11:36 51°9.391 2°35.966 184.9 1.8 238 16.1
2011-05-19 09:11:42 51°9.389 2°35.962 185 1.8 238 16
2011-05-19 09:11:46 51°9.388 2°35.959 185.1 1.8 239 16.1
2011-05-19 09:11:51 51°9.387 2°35.955 185.2 1.8 238 16.1
2011-05-19 09:11:56 51°9.386 2°35.952 185.2 1.8 238 16
2011-05-19 09:12:02 51°9.384 2°35.948 185.2 1.8 238 16
2011-05-19 09:12:06 51°9.383 2°35.945 185.2 1.8 238 16
2011-05-19 09:12:10 51°9.382 2°35.943 185.3 1.8 237 16
2011-05-19 09:12:16 51°9.38 2°35.939 185.3 1.8 237 16
2011-05-19 09:12:22 51°9.379 2°35.935 185.3 1.8 237 16
2011-05-19 09:12:26 51°9.378 2°35.932 185.4 1.8 238 16
2011-05-19 09:12:31 51°9.376 2°35.929 185.4 1.8 238 16
2011-05-19 09:12:36 51°9.375 2°35.925 185.5 1.8 237 16.1
2011-05-19 09:12:41 51°9.373 2°35.922 185.6 1.8 236 16.1
2011-05-19 09:12:46 51°9.372 2°35.919 185.7 1.8 236 16.1
2011-05-19 09:12:50 51°9.371 2°35.916 185.8 1.8 238 16
2011-05-19 09:12:56 51°9.37 2°35.912 185.8 1.8 237 16
2011-05-19 09:13:01 51°9.368 2°35.909 185.8 1.8 238 16
2011-05-19 09:13:06 51°9.367 2°35.905 185.8 1.8 237 16.1
2011-05-19 09:13:11 51°9.366 2°35.902 185.8 1.8 236 16.1
2011-05-19 09:13:16 51°9.364 2°35.899 185.8 1.8 236 16.1
2011-05-19 09:13:21 51°9.363 2°35.896 185.9 1.8 236 16.1
2011-05-19 09:13:26 51°9.361 2°35.893 185.9 1.8 235 16.2
2011-05-19 09:13:31 51°9.36 2°35.889 185.9 1.8 238 16.2
2011-05-19 09:13:36 51°9.359 2°35.886 185.8 1.8 237 16.2
2011-05-19 09:13:41 51°9.357 2°35.883 185.8 1.8 237 16.1
2011-05-19 09:13:46 51°9.356 2°35.88 185.7 1.8 236 16.2
2011-05-19 09:13:51 51°9.354 2°35.876 185.7 1.8 236 16.2
2011-05-19 09:13:56 51°9.353 2°35.873 185.7 1.8 239 16.2
2011-05-19 09:14:02 51°9.351 2°35.869 185.6 1.8 239 16.1
2011-05-19 09:14:06 51°9.35 2°35.867 185.4 1.8 237 16.2
2011-05-19 09:14:11 51°9.349 2°35.863 185.3 1.7 236 16.2